• Join FlightAware (Why Join?)
  • Login
  • US Flag 
05:54AM EDT


 

Airport Tracker/Info


-or-


 

Live Flight TrackerFlight Track Log ✈ ASQ4356 ✈ 07-Jul-2013 ✈ KIAH - KMAF

Flight Track Log - Related Links

Times and Time Zones

All times are in EDT time to prevent confusion due to time zone crossing. See the ASQ4356 flight status page for this flight to view local times or setup timezone preferences in your user account.

Time Position Orientation Groundspeed Altitude Reporting Facility
EDT Latitude Longitude Course Direction KTS MPH feet Rate Location/Type
09:12PM 29.9578 -95.3464 276° West 159 183 1,000  Level Houston Center
09:13PM 29.9411 -95.3942 248° West 237 273 2,800 1,860 Climbing Houston Center
09:14PM 30.0231 -95.7080 277° West  Level FlightAware Approximate
09:14PM 29.9653 -95.4758 289° West 252 290 5,000  Level Houston Center
09:15PM 30.0361 -95.8335 276° West  Level FlightAware Approximate
09:15PM 29.9861 -95.5842 283° West 272 313 7,500  Level Houston Center
09:16PM 30.0466 -95.9593 276° West  Level FlightAware Approximate
09:16PM 30.0019 -95.6744 281° West 283 326 9,400  Level Houston Center
09:17PM 30.0696 -96.0817 276° West  Level FlightAware Approximate
09:17PM 30.0181 -95.7683 281° West 296 341 10,900  Level Houston Center
09:18PM 30.0364 -95.8711 282° West 325 374 12,100 1,200 Climbing Houston Center
09:19PM 30.0564 -95.9814 282° West 348 400 13,400 1,200 Climbing Houston Center
09:20PM 30.0767 -96.1003 281° West 361 415 14,600 1,140 Climbing Houston Center
09:21PM 30.0944 -96.2150 280° West 365 420 15,800 1,020 Climbing Houston Center
09:22PM 30.1131 -96.3350 280° West 377 434 16,800 1,020 Climbing Houston Center
09:23PM 30.1325 -96.4672 280° West 386 444 17,900 1,080 Climbing Houston Center
09:24PM 30.1519 -96.5936 280° West 393 452 19,000 1,020 Climbing Houston Center
09:25PM 30.1717 -96.7200 280° West 397 457 20,000 960 Climbing Houston Center
09:26PM 30.1908 -96.8489 280° West 401 461 21,000 1,020 Climbing Houston Center
09:27PM 30.2106 -96.9808 280° West 408 470 22,100 1,020 Climbing Houston Center
09:28PM 30.2289 -97.1122 279° West 409 471 23,100 960 Climbing Houston Center
09:29PM 30.2486 -97.2472 280° West 417 480 24,100 960 Climbing Houston Center
09:30PM 30.2850 -97.3725 289° West 411 473 25,100 960 Climbing Houston Center
09:31PM 30.3314 -97.4953 294° West 411 473 26,100 1,020 Climbing Houston Center
09:32PM 30.3786 -97.6172 294° West 408 470 27,200 1,020 Climbing Houston Center
09:33PM 30.4253 -97.7400 294° West 410 472 28,200 960 Climbing Houston Center
09:34PM 30.4717 -97.8644 293° West 414 476 29,200 840 Climbing Houston Center
09:35PM 30.5189 -97.9875 294° West 413 475 30,000 360 Climbing Houston Center
09:36PM 30.5675 -98.1192 293° West 433 498 30,000  Level Houston Center
09:37PM 30.6197 -98.2569 294° West 457 526 30,000  Level Houston Center
09:38PM 30.6817 -98.4225 294° West 472 543 30,000  Level Houston Center
09:39PM 30.7344 -98.5656 293° West 474 545 30,000  Level Houston Center
09:40PM 30.7875 -98.7092 293° West 478 550 30,000  Level Houston Center
09:41PM 30.8419 -98.8553 293° West 485 558 30,000  Level Houston Center
09:42PM 30.8958 -99.0000 293° West 485 558 30,000  Level Houston Center
09:43PM 30.9489 -99.1467 293° West 486 559 30,000  Level Houston Center
09:45PM 30.9992 -99.2853 293° West 482 555 30,000  Level Houston Center
09:46PM 31.0506 -99.4286 293° West 482 555 30,000  Level Houston Center
09:47PM 31.1014 -99.5667 293° West 466 536 30,000  Level Houston Center
09:48PM 31.1531 -99.7128 292° West 481 554 30,000  Level Houston Center
09:49PM 31.2056 -99.8567 293° West 484 557 30,000  Level Houston Center
09:50PM 31.2569 -99.9983 293° West 478 550 30,000  Level Houston Center
09:51PM 31.3189 -100.1725 293° West 485 558 30,000  Level Houston Center
09:52PM 31.3692 -100.3167 292° West 483 556 30,000 -900 Level Houston Center
09:53PM 31.4206 -100.4586 293° West 475 547 28,200 -1,860 Descending Houston Center
09:54PM 31.4694 -100.5997 292° West 466 536 26,300 -1,980 Descending Houston Center
09:55PM 31.5256 -100.7667 292° West 465 535 24,000 -2,040 Descending Fort Worth Center
09:56PM 31.5719 -100.8975 293° West 455 524 22,000 -1,980 Descending Fort Worth Center
09:57PM 31.6186 -101.0286 293° West 441 507 20,100 -1,980 Descending Fort Worth Center
09:58PM 31.6606 -101.1572 291° West 430 495 18,100 -2,040 Descending Fort Worth Center
09:59PM 31.7047 -101.2836 292° West 430 495 16,100 -1,980 Descending Fort Worth Center
10:00PM 31.7469 -101.4075 292° West 419 482 14,200 -1,800 Descending Fort Worth Center
10:01PM 31.7850 -101.5167 292° West 394 453 12,500 -1,740 Descending Fort Worth Center
10:02PM 31.8192 -101.6208 291° West 364 419 10,800 -1,680 Descending Fort Worth Center
10:03PM 31.8494 -101.7128 291° West 332 382 9,200 -1,680 Descending Fort Worth Center
10:04PM 31.8781 -101.7947 292° West 311 358 7,500 -1,620 Descending Fort Worth Center
10:05PM 31.9083 -101.8794 293° West 294 338 6,000 -780 Descending Fort Worth Center
10:06PM 31.9453 -101.9547 300° West 278 320 6,000  Level Fort Worth Center
10:07PM 31.9803 -102.0297 299° West 265 305 6,000 -480 Level Fort Worth Center
10:08PM 32.0133 -102.0953 301° West 252 290 5,100 -900 Descending Fort Worth Center
10:09PM 32.0356 -102.1697 289° West 238 274 4,200 -900 Descending Fort Worth Center